sensor_id;sensor_type;location;lat;lon;timestamp;pressure;altitude;pressure_sealevel;temperature;humidity
64844;BME280;51310;52.198;5.422;2023-03-20T00:02:06;101691.41;;;7.21;100.00
64844;BME280;51310;52.198;5.422;2023-03-20T00:04:32;101702.41;;;7.20;100.00
64844;BME280;51310;52.198;5.422;2023-03-20T00:06:57;101700.03;;;7.22;100.00
64844;BME280;51310;52.198;5.422;2023-03-20T00:09:23;101694.75;;;7.27;100.00
64844;BME280;51310;52.198;5.422;2023-03-20T00:11:53;101702.59;;;7.22;100.00
64844;BME280;51310;52.198;5.422;2023-03-20T00:14:22;101705.19;;;7.29;100.00
64844;BME280;51310;52.198;5.422;2023-03-20T00:16:50;101702.63;;;7.29;100.00
64844;BME280;51310;52.198;5.422;2023-03-20T00:19:22;101709.19;;;7.27;100.00
64844;BME280;51310;52.198;5.422;2023-03-20T00:21:49;101702.78;;;7.23;100.00
64844;BME280;51310;52.198;5.422;2023-03-20T00:24:16;101695.28;;;7.25;100.00
64844;BME280;51310;52.198;5.422;2023-03-20T00:26:44;101698.19;;;7.21;100.00
64844;BME280;51310;52.198;5.422;2023-03-20T00:29:24;101695.09;;;7.23;100.00
64844;BME280;51310;52.198;5.422;2023-03-20T00:31:51;101689.59;;;7.20;100.00
64844;BME280;51310;52.198;5.422;2023-03-20T00:34:19;101686.31;;;7.21;100.00
64844;BME280;51310;52.198;5.422;2023-03-20T00:36:45;101679.56;;;7.22;100.00
64844;BME280;51310;52.198;5.422;2023-03-20T00:39:11;101671.47;;;7.18;100.00
64844;BME280;51310;52.198;5.422;2023-03-20T00:41:51;101676.41;;;7.17;100.00
64844;BME280;51310;52.198;5.422;2023-03-20T00:44:38;101681.53;;;7.17;100.00
64844;BME280;51310;52.198;5.422;2023-03-20T00:49:36;101712.06;;;7.15;100.00
64844;BME280;51310;52.198;5.422;2023-03-20T00:52:05;101706.06;;;7.15;100.00
64844;BME280;51310;52.198;5.422;2023-03-20T00:54:31;101704.19;;;7.14;100.00
64844;BME280;51310;52.198;5.422;2023-03-20T00:57:02;101712.44;;;7.18;100.00
64844;BME280;51310;52.198;5.422;2023-03-20T00:59:38;101730.41;;;7.26;100.00
64844;BME280;51310;52.198;5.422;2023-03-20T01:02:05;101733.50;;;7.23;100.00
64844;BME280;51310;52.198;5.422;2023-03-20T01:04:37;101741.00;;;7.22;100.00
64844;BME280;51310;52.198;5.422;2023-03-20T01:07:05;101748.34;;;7.26;100.00
64844;BME280;51310;52.198;5.422;2023-03-20T01:09:31;101735.50;;;7.18;100.00
64844;BME280;51310;52.198;5.422;2023-03-20T01:12:02;101733.84;;;7.19;100.00
64844;BME280;51310;52.198;5.422;2023-03-20T01:14:28;101714.81;;;7.17;100.00
64844;BME280;51310;52.198;5.422;2023-03-20T01:16:54;101721.22;;;7.21;100.00
64844;BME280;51310;52.198;5.422;2023-03-20T01:19:20;101721.44;;;7.22;100.00
64844;BME280;51310;52.198;5.422;2023-03-20T01:21:46;101728.00;;;7.20;100.00
64844;BME280;51310;52.198;5.422;2023-03-20T01:24:12;101737.69;;;7.23;100.00
64844;BME280;51310;52.198;5.422;2023-03-20T01:26:41;101725.66;;;7.22;100.00
64844;BME280;51310;52.198;5.422;2023-03-20T01:29:26;101728.56;;;7.25;100.00
64844;BME280;51310;52.198;5.422;2023-03-20T01:31:52;101719.25;;;7.25;100.00
64844;BME280;51310;52.198;5.422;2023-03-20T01:34:19;101723.25;;;7.23;100.00
64844;BME280;51310;52.198;5.422;2023-03-20T01:36:53;101734.44;;;7.24;100.00
64844;BME280;51310;52.198;5.422;2023-03-20T01:39:22;101728.78;;;7.26;100.00
64844;BME280;51310;52.198;5.422;2023-03-20T01:41:53;101714.31;;;7.27;100.00
64844;BME280;51310;52.198;5.422;2023-03-20T01:44:22;101708.09;;;7.25;100.00
64844;BME280;51310;52.198;5.422;2023-03-20T01:46:51;101724.19;;;7.24;100.00
64844;BME280;51310;52.198;5.422;2023-03-20T01:51:44;101711.56;;;7.25;100.00
64844;BME280;51310;52.198;5.422;2023-03-20T01:57:19;101709.53;;;7.15;100.00
64844;BME280;51310;52.198;5.422;2023-03-20T01:59:54;101711.66;;;7.05;100.00
64844;BME280;51310;52.198;5.422;2023-03-20T02:02:28;101701.00;;;6.95;100.00
64844;BME280;51310;52.198;5.422;2023-03-20T02:05:04;101705.75;;;6.92;100.00
64844;BME280;51310;52.198;5.422;2023-03-20T02:07:33;101713.78;;;6.95;100.00
64844;BME280;51310;52.198;5.422;2023-03-20T02:10:02;101711.78;;;6.92;100.00
64844;BME280;51310;52.198;5.422;2023-03-20T02:12:28;101702.63;;;6.94;100.00
64844;BME280;51310;52.198;5.422;2023-03-20T02:14:55;101700.09;;;6.94;100.00
64844;BME280;51310;52.198;5.422;2023-03-20T02:17:21;101710.66;;;6.90;100.00
64844;BME280;51310;52.198;5.422;2023-03-20T02:20:35;101721.88;;;6.98;100.00
64844;BME280;51310;52.198;5.422;2023-03-20T02:23:32;101703.41;;;7.01;100.00
64844;BME280;51310;52.198;5.422;2023-03-20T02:29:45;101692.97;;;6.99;100.00
64844;BME280;51310;52.198;5.422;2023-03-20T02:38:14;101696.75;;;6.88;100.00
64844;BME280;51310;52.198;5.422;2023-03-20T02:46:45;101694.25;;;6.95;100.00
64844;BME280;51310;52.198;5.422;2023-03-20T02:49:25;101704.63;;;6.90;100.00
64844;BME280;51310;52.198;5.422;2023-03-20T02:54:59;101678.28;;;6.84;100.00
64844;BME280;51310;52.198;5.422;2023-03-20T03:03:28;101657.72;;;6.69;100.00
64844;BME280;51310;52.198;5.422;2023-03-20T03:06:08;101640.19;;;6.65;100.00
64844;BME280;51310;52.198;5.422;2023-03-20T03:08:43;101625.88;;;6.60;100.00
64844;BME280;51310;52.198;5.422;2023-03-20T03:11:12;101622.91;;;6.50;100.00
64844;BME280;51310;52.198;5.422;2023-03-20T03:13:44;101630.19;;;6.47;100.00
64844;BME280;51310;52.198;5.422;2023-03-20T03:16:25;101636.22;;;6.47;100.00
64844;BME280;51310;52.198;5.422;2023-03-20T03:19:08;101640.22;;;6.45;100.00
64844;BME280;51310;52.198;5.422;2023-03-20T03:21:39;101640.06;;;6.44;100.00
64844;BME280;51310;52.198;5.422;2023-03-20T03:24:06;101643.66;;;6.39;100.00
64844;BME280;51310;52.198;5.422;2023-03-20T03:26:41;101648.22;;;6.41;100.00
64844;BME280;51310;52.198;5.422;2023-03-20T03:29:15;101643.28;;;6.35;100.00
64844;BME280;51310;52.198;5.422;2023-03-20T03:31:43;101636.66;;;6.30;100.00
64844;BME280;51310;52.198;5.422;2023-03-20T03:34:16;101631.38;;;6.29;100.00
64844;BME280;51310;52.198;5.422;2023-03-20T03:36:52;101630.59;;;6.23;100.00
64844;BME280;51310;52.198;5.422;2023-03-20T03:39:52;101630.00;;;6.18;100.00
64844;BME280;51310;52.198;5.422;2023-03-20T03:42:54;101633.44;;;6.11;100.00
64844;BME280;51310;52.198;5.422;2023-03-20T03:45:34;101633.09;;;6.15;100.00
64844;BME280;51310;52.198;5.422;2023-03-20T03:48:11;101631.47;;;6.16;100.00
64844;BME280;51310;52.198;5.422;2023-03-20T03:50:47;101631.47;;;6.16;100.00
64844;BME280;51310;52.198;5.422;2023-03-20T03:53:21;101624.13;;;6.12;100.00
64844;BME280;51310;52.198;5.422;2023-03-20T03:55:53;101619.34;;;6.08;100.00
64844;BME280;51310;52.198;5.422;2023-03-20T03:58:55;101610.03;;;6.08;100.00
64844;BME280;51310;52.198;5.422;2023-03-20T04:01:23;101613.13;;;6.06;100.00
64844;BME280;51310;52.198;5.422;2023-03-20T04:03:56;101618.03;;;6.04;100.00
64844;BME280;51310;52.198;5.422;2023-03-20T04:06:27;101610.31;;;5.97;100.00
64844;BME280;51310;52.198;5.422;2023-03-20T04:08:53;101609.44;;;6.04;100.00
64844;BME280;51310;52.198;5.422;2023-03-20T04:11:22;101610.69;;;6.00;100.00
64844;BME280;51310;52.198;5.422;2023-03-20T04:13:50;101607.22;;;6.00;100.00
64844;BME280;51310;52.198;5.422;2023-03-20T04:16:19;101606.19;;;6.05;100.00
64844;BME280;51310;52.198;5.422;2023-03-20T04:18:45;101604.72;;;6.07;100.00
64844;BME280;51310;52.198;5.422;2023-03-20T04:21:12;101610.91;;;6.02;100.00
64844;BME280;51310;52.198;5.422;2023-03-20T04:23:37;101598.69;;;6.06;100.00
64844;BME280;51310;52.198;5.422;2023-03-20T04:26:04;101597.59;;;6.04;100.00
64844;BME280;51310;52.198;5.422;2023-03-20T04:28:30;101601.59;;;6.02;100.00
64844;BME280;51310;52.198;5.422;2023-03-20T04:30:59;101595.56;;;6.02;100.00
64844;BME280;51310;52.198;5.422;2023-03-20T04:33:26;101604.88;;;6.01;100.00
64844;BME280;51310;52.198;5.422;2023-03-20T04:35:52;101604.34;;;6.04;100.00
64844;BME280;51310;52.198;5.422;2023-03-20T04:38:19;101610.34;;;6.04;100.00
64844;BME280;51310;52.198;5.422;2023-03-20T04:40:46;101607.97;;;5.99;100.00
64844;BME280;51310;52.198;5.422;2023-03-20T04:43:13;101605.41;;;5.99;100.00
64844;BME280;51310;52.198;5.422;2023-03-20T04:45:40;101605.19;;;5.97;100.00
64844;BME280;51310;52.198;5.422;2023-03-20T04:48:06;101606.13;;;5.98;100.00
64844;BME280;51310;52.198;5.422;2023-03-20T04:50:32;101601.00;;;5.98;100.00
64844;BME280;51310;52.198;5.422;2023-03-20T04:52:57;101598.97;;;5.95;100.00
64844;BME280;51310;52.198;5.422;2023-03-20T04:55:23;101600.66;;;6.02;100.00
64844;BME280;51310;52.198;5.422;2023-03-20T04:57:49;101601.91;;;5.98;100.00
64844;BME280;51310;52.198;5.422;2023-03-20T05:00:16;101603.34;;;5.96;100.00
64844;BME280;51310;52.198;5.422;2023-03-20T05:02:43;101606.41;;;5.93;100.00
64844;BME280;51310;52.198;5.422;2023-03-20T05:05:08;101592.34;;;5.90;100.00
64844;BME280;51310;52.198;5.422;2023-03-20T05:07:35;101592.22;;;5.95;100.00
64844;BME280;51310;52.198;5.422;2023-03-20T05:10:01;101592.34;;;5.90;100.00
64844;BME280;51310;52.198;5.422;2023-03-20T05:12:27;101586.28;;;5.89;100.00
64844;BME280;51310;52.198;5.422;2023-03-20T05:14:52;101583.25;;;5.92;100.00
64844;BME280;51310;52.198;5.422;2023-03-20T05:17:21;101583.66;;;5.95;100.00
64844;BME280;51310;52.198;5.422;2023-03-20T05:19:47;101592.50;;;5.91;100.00
64844;BME280;51310;52.198;5.422;2023-03-20T05:22:17;101597.63;;;5.91;100.00
64844;BME280;51310;52.198;5.422;2023-03-20T05:24:43;101591.81;;;5.92;100.00
64844;BME280;51310;52.198;5.422;2023-03-20T05:27:09;101590.69;;;5.90;100.00
64844;BME280;51310;52.198;5.422;2023-03-20T05:29:35;101592.69;;;5.86;100.00
64844;BME280;51310;52.198;5.422;2023-03-20T05:32:01;101593.47;;;5.92;100.00
64844;BME280;51310;52.198;5.422;2023-03-20T05:34:26;101590.81;;;5.85;100.00
64844;BME280;51310;52.198;5.422;2023-03-20T05:36:52;101586.50;;;5.91;100.00
64844;BME280;51310;52.198;5.422;2023-03-20T05:39:19;101593.47;;;5.92;100.00
64844;BME280;51310;52.198;5.422;2023-03-20T05:41:44;101592.50;;;5.91;100.00
64844;BME280;51310;52.198;5.422;2023-03-20T05:44:10;101596.72;;;5.91;100.00
64844;BME280;51310;52.198;5.422;2023-03-20T05:46:36;101606.94;;;5.91;100.00
64844;BME280;51310;52.198;5.422;2023-03-20T05:49:02;101608.00;;;5.86;100.00
64844;BME280;51310;52.198;5.422;2023-03-20T05:51:27;101607.69;;;5.90;100.00
64844;BME280;51310;52.198;5.422;2023-03-20T05:53:53;101616.47;;;5.92;100.00
64844;BME280;51310;52.198;5.422;2023-03-20T05:56:19;101616.47;;;5.92;100.00
64844;BME280;51310;52.198;5.422;2023-03-20T05:58:44;101622.19;;;5.97;100.00
64844;BME280;51310;52.198;5.422;2023-03-20T06:01:10;101613.06;;;5.99;100.00
64844;BME280;51310;52.198;5.422;2023-03-20T06:03:36;101612.22;;;6.05;100.00
64844;BME280;51310;52.198;5.422;2023-03-20T06:06:03;101609.56;;;5.98;100.00
64844;BME280;51310;52.198;5.422;2023-03-20T06:08:29;101600.28;;;5.99;100.00
64844;BME280;51310;52.198;5.422;2023-03-20T06:10:55;101598.44;;;5.98;100.00
64844;BME280;51310;52.198;5.422;2023-03-20T06:13:21;101598.66;;;5.99;100.00
64844;BME280;51310;52.198;5.422;2023-03-20T06:15:46;101603.22;;;6.02;100.00
64844;BME280;51310;52.198;5.422;2023-03-20T06:18:12;101599.34;;;5.98;100.00
64844;BME280;51310;52.198;5.422;2023-03-20T06:20:38;101604.66;;;6.00;100.00
64844;BME280;51310;52.198;5.422;2023-03-20T06:23:03;101603.44;;;6.03;100.00
64844;BME280;51310;52.198;5.422;2023-03-20T06:25:29;101610.56;;;6.06;100.00
64844;BME280;51310;52.198;5.422;2023-03-20T06:27:55;101614.56;;;6.04;100.00
64844;BME280;51310;52.198;5.422;2023-03-20T06:30:20;101613.97;;;5.99;100.00
64844;BME280;51310;52.198;5.422;2023-03-20T06:32:46;101622.97;;;6.03;100.00
64844;BME280;51310;52.198;5.422;2023-03-20T06:35:12;101620.91;;;6.00;100.00
64844;BME280;51310;52.198;5.422;2023-03-20T06:37:39;101630.81;;;6.04;100.00
64844;BME280;51310;52.198;5.422;2023-03-20T06:40:06;101624.78;;;6.04;100.00
64844;BME280;51310;52.198;5.422;2023-03-20T06:42:32;101628.25;;;6.04;100.00
64844;BME280;51310;52.198;5.422;2023-03-20T06:44:58;101631.78;;;6.12;100.00
64844;BME280;51310;52.198;5.422;2023-03-20T06:47:24;101631.78;;;6.12;100.00
64844;BME280;51310;52.198;5.422;2023-03-20T06:49:49;101634.88;;;6.09;100.00
64844;BME280;51310;52.198;5.422;2023-03-20T06:52:18;101635.59;;;6.08;100.00
64844;BME280;51310;52.198;5.422;2023-03-20T06:54:46;101633.44;;;6.11;100.00
64844;BME280;51310;52.198;5.422;2023-03-20T06:57:12;101629.75;;;6.09;100.00
64844;BME280;51310;52.198;5.422;2023-03-20T06:59:37;101630.13;;;6.12;100.00
64844;BME280;51310;52.198;5.422;2023-03-20T07:02:04;101633.81;;;6.14;100.00
64844;BME280;51310;52.198;5.422;2023-03-20T07:04:30;101630.34;;;6.14;100.00
64844;BME280;51310;52.198;5.422;2023-03-20T07:06:56;101632.41;;;6.24;100.00
64844;BME280;51310;52.198;5.422;2023-03-20T07:09:23;101632.03;;;6.21;100.00
64844;BME280;51310;52.198;5.422;2023-03-20T07:11:48;101632.81;;;6.27;100.00
64844;BME280;51310;52.198;5.422;2023-03-20T07:14:14;101632.41;;;6.24;100.00
64844;BME280;51310;52.198;5.422;2023-03-20T07:16:40;101630.78;;;6.24;100.00
64844;BME280;51310;52.198;5.422;2023-03-20T07:19:06;101632.41;;;6.24;100.00
64844;BME280;51310;52.198;5.422;2023-03-20T07:21:32;101631.38;;;6.29;100.00
64844;BME280;51310;52.198;5.422;2023-03-20T07:23:58;101636.97;;;6.26;100.00
64844;BME280;51310;52.198;5.422;2023-03-20T07:26:24;101638.63;;;6.26;100.00
64844;BME280;51310;52.198;5.422;2023-03-20T07:28:50;101637.59;;;6.31;100.00
64844;BME280;51310;52.198;5.422;2023-03-20T07:31:25;101638.28;;;6.30;100.00
64844;BME280;51310;52.198;5.422;2023-03-20T07:33:51;101638.50;;;6.31;100.00
64844;BME280;51310;52.198;5.422;2023-03-20T07:36:17;101642.94;;;6.40;100.00
64844;BME280;51310;52.198;5.422;2023-03-20T07:38:42;101641.63;;;6.36;100.00
64844;BME280;51310;52.198;5.422;2023-03-20T07:41:08;101644.72;;;6.33;100.00
64844;BME280;51310;52.198;5.422;2023-03-20T07:43:34;101645.88;;;6.43;100.00
64844;BME280;51310;52.198;5.422;2023-03-20T07:46:05;101641.66;;;6.43;100.00
64844;BME280;51310;52.198;5.422;2023-03-20T07:48:31;101641.34;;;6.47;100.00
64844;BME280;51310;52.198;5.422;2023-03-20T07:50:57;101640.09;;;6.51;100.00
64844;BME280;51310;52.198;5.422;2023-03-20T07:53:23;101642.31;;;6.55;100.00
64844;BME280;51310;52.198;5.422;2023-03-20T07:55:49;101640.28;;;6.52;100.00
64844;BME280;51310;52.198;5.422;2023-03-20T07:58:14;101640.78;;;6.50;100.00
64844;BME280;51310;52.198;5.422;2023-03-20T08:00:41;101640.63;;;6.48;100.00
64844;BME280;51310;52.198;5.422;2023-03-20T08:03:06;101642.09;;;6.53;100.00
64844;BME280;51310;52.198;5.422;2023-03-20T08:05:32;101643.22;;;6.55;100.00
64844;BME280;51310;52.198;5.422;2023-03-20T08:07:58;101637.75;;;6.60;100.00
64844;BME280;51310;52.198;5.422;2023-03-20T08:10:24;101637.66;;;6.72;100.00
64844;BME280;51310;52.198;5.422;2023-03-20T08:12:50;101633.44;;;6.73;100.00
64844;BME280;51310;52.198;5.422;2023-03-20T08:15:15;101636.78;;;6.79;100.00
64844;BME280;51310;52.198;5.422;2023-03-20T08:17:45;101638.66;;;6.87;100.00
64844;BME280;51310;52.198;5.422;2023-03-20T08:20:13;101636.78;;;6.86;100.00
64844;BME280;51310;52.198;5.422;2023-03-20T08:22:39;101638.81;;;6.89;100.00
64844;BME280;51310;52.198;5.422;2023-03-20T08:25:06;101632.16;;;7.11;100.00
64844;BME280;51310;52.198;5.422;2023-03-20T08:27:34;101642.25;;;7.24;100.00
64844;BME280;51310;52.198;5.422;2023-03-20T08:30:00;101636.81;;;7.35;100.00
64844;BME280;51310;52.198;5.422;2023-03-20T08:32:26;101635.50;;;7.24;100.00
64844;BME280;51310;52.198;5.422;2023-03-20T08:34:52;101636.59;;;7.26;100.00
64844;BME280;51310;52.198;5.422;2023-03-20T08:37:20;101642.28;;;7.38;100.00
64844;BME280;51310;52.198;5.422;2023-03-20T08:39:46;101636.81;;;7.35;100.00
64844;BME280;51310;52.198;5.422;2023-03-20T08:42:12;101633.91;;;7.53;100.00
64844;BME280;51310;52.198;5.422;2023-03-20T08:44:38;101631.88;;;7.58;100.00
64844;BME280;51310;52.198;5.422;2023-03-20T08:47:04;101627.16;;;7.61;100.00
64844;BME280;51310;52.198;5.422;2023-03-20T08:49:32;101628.81;;;7.68;100.00
64844;BME280;51310;52.198;5.422;2023-03-20T08:51:59;101631.38;;;7.60;100.00
64844;BME280;51310;52.198;5.422;2023-03-20T08:54:25;101627.50;;;7.57;100.00
64844;BME280;51310;52.198;5.422;2023-03-20T08:56:52;101629.31;;;7.58;100.00
64844;BME280;51310;52.198;5.422;2023-03-20T08:59:17;101632.28;;;7.61;100.00
64844;BME280;51310;52.198;5.422;2023-03-20T09:01:44;101633.38;;;7.70;100.00
64844;BME280;51310;52.198;5.422;2023-03-20T09:04:14;101630.63;;;7.69;100.00
64844;BME280;51310;52.198;5.422;2023-03-20T09:06:40;101635.75;;;7.54;100.00
64844;BME280;51310;52.198;5.422;2023-03-20T09:09:07;101635.19;;;7.64;100.00
64844;BME280;51310;52.198;5.422;2023-03-20T09:11:33;101640.50;;;7.73;100.00
64844;BME280;51310;52.198;5.422;2023-03-20T09:13:59;101646.00;;;7.69;100.00
64844;BME280;51310;52.198;5.422;2023-03-20T09:16:25;101646.38;;;7.65;100.00
64844;BME280;51310;52.198;5.422;2023-03-20T09:18:51;101649.81;;;7.58;100.00
64844;BME280;51310;52.198;5.422;2023-03-20T09:21:17;101650.75;;;7.58;100.00
64844;BME280;51310;52.198;5.422;2023-03-20T09:23:43;101651.66;;;7.59;100.00
64844;BME280;51310;52.198;5.422;2023-03-20T09:26:08;101657.00;;;7.68;100.00
64844;BME280;51310;52.198;5.422;2023-03-20T09:28:34;101649.16;;;7.73;100.00
64844;BME280;51310;52.198;5.422;2023-03-20T09:31:00;101643.81;;;7.79;100.00
64844;BME280;51310;52.198;5.422;2023-03-20T09:33:27;101649.16;;;7.73;100.00
64844;BME280;51310;52.198;5.422;2023-03-20T09:35:53;101650.75;;;7.73;100.00
64844;BME280;51310;52.198;5.422;2023-03-20T09:38:19;101651.13;;;7.69;100.00
64844;BME280;51310;52.198;5.422;2023-03-20T09:40:59;101650.97;;;7.89;100.00
64844;BME280;51310;52.198;5.422;2023-03-20T09:50:12;101640.91;;;8.26;100.00
64844;BME280;51310;52.198;5.422;2023-03-20T09:52:54;101638.91;;;8.02;100.00
64844;BME280;51310;52.198;5.422;2023-03-20T09:55:32;101629.34;;;8.22;100.00
64844;BME280;51310;52.198;5.422;2023-03-20T10:00:39;101624.97;;;8.43;100.00
64844;BME280;51310;52.198;5.422;2023-03-20T10:03:35;101633.56;;;8.29;100.00
64844;BME280;51310;52.198;5.422;2023-03-20T10:06:11;101637.97;;;8.23;100.00
64844;BME280;51310;52.198;5.422;2023-03-20T10:08:39;101633.56;;;8.22;100.00
64844;BME280;51310;52.198;5.422;2023-03-20T10:15:22;101640.44;;;8.88;100.00
64844;BME280;51310;52.198;5.422;2023-03-20T10:20:56;101632.31;;;8.92;100.00
64844;BME280;51310;52.198;5.422;2023-03-20T10:23:41;101632.03;;;8.74;100.00
64844;BME280;51310;52.198;5.422;2023-03-20T10:26:15;101632.94;;;8.82;100.00
64844;BME280;51310;52.198;5.422;2023-03-20T10:29:01;101638.78;;;8.88;100.00
64844;BME280;51310;52.198;5.422;2023-03-20T10:31:49;101632.31;;;8.92;100.00
64844;BME280;51310;52.198;5.422;2023-03-20T10:34:30;101621.75;;;8.81;100.00
64844;BME280;51310;52.198;5.422;2023-03-20T10:37:13;101627.16;;;8.47;100.00
64844;BME280;51310;52.198;5.422;2023-03-20T10:42:23;101627.16;;;8.47;100.00
64844;BME280;51310;52.198;5.422;2023-03-20T10:45:03;101629.34;;;8.44;100.00
64844;BME280;51310;52.198;5.422;2023-03-20T10:47:37;101627.72;;;8.16;100.00
64844;BME280;51310;52.198;5.422;2023-03-20T10:50:15;101624.78;;;8.27;100.00
64844;BME280;51310;52.198;5.422;2023-03-20T10:52:44;101626.03;;;8.31;100.00
64844;BME280;51310;52.198;5.422;2023-03-20T10:55:24;101625.13;;;8.30;100.00
64844;BME280;51310;52.198;5.422;2023-03-20T10:58:02;101612.28;;;8.37;100.00
64844;BME280;51310;52.198;5.422;2023-03-20T11:00:30;101612.13;;;8.57;100.00
64844;BME280;51310;52.198;5.422;2023-03-20T11:02:57;101610.78;;;8.68;100.00
64844;BME280;51310;52.198;5.422;2023-03-20T11:05:33;101614.06;;;8.81;100.00
64844;BME280;51310;52.198;5.422;2023-03-20T11:08:04;101610.25;;;8.71;100.00
64844;BME280;51310;52.198;5.422;2023-03-20T11:10:34;101614.16;;;8.46;100.00
64844;BME280;51310;52.198;5.422;2023-03-20T11:13:26;101614.50;;;8.34;100.00
64844;BME280;51310;52.198;5.422;2023-03-20T11:15:55;101617.09;;;8.41;100.00
64844;BME280;51310;52.198;5.422;2023-03-20T11:18:24;101613.22;;;8.31;100.00
64844;BME280;51310;52.198;5.422;2023-03-20T11:20:56;101614.34;;;8.26;100.00
64844;BME280;51310;52.198;5.422;2023-03-20T11:23:28;101618.72;;;8.34;100.00
64844;BME280;51310;52.198;5.422;2023-03-20T11:26:04;101609.78;;;8.45;100.00
64844;BME280;51310;52.198;5.422;2023-03-20T11:28:37;101598.72;;;8.53;100.00
64844;BME280;51310;52.198;5.422;2023-03-20T11:33:42;101591.78;;;8.52;100.00
64844;BME280;51310;52.198;5.422;2023-03-20T11:36:29;101588.09;;;8.64;100.00
64844;BME280;51310;52.198;5.422;2023-03-20T11:39:14;101589.25;;;8.45;100.00
64844;BME280;51310;52.198;5.422;2023-03-20T11:41:55;101581.56;;;8.45;100.00
64844;BME280;51310;52.198;5.422;2023-03-20T11:44:33;101584.28;;;8.46;100.00
64844;BME280;51310;52.198;5.422;2023-03-20T11:47:24;101583.38;;;8.46;100.00
64844;BME280;51310;52.198;5.422;2023-03-20T11:49:57;101573.94;;;8.68;100.00
64844;BME280;51310;52.198;5.422;2023-03-20T11:55:01;101573.59;;;9.02;100.00
64844;BME280;51310;52.198;5.422;2023-03-20T11:57:37;101569.44;;;9.26;100.00
64844;BME280;51310;52.198;5.422;2023-03-20T12:02:40;101574.50;;;9.40;100.00
64844;BME280;51310;52.198;5.422;2023-03-20T12:05:31;101577.34;;;9.20;100.00
64844;BME280;51310;52.198;5.422;2023-03-20T12:08:15;101582.06;;;9.01;100.00
64844;BME280;51310;52.198;5.422;2023-03-20T12:10:54;101583.59;;;8.85;100.00
64844;BME280;51310;52.198;5.422;2023-03-20T12:13:30;101576.50;;;8.75;100.00
64844;BME280;51310;52.198;5.422;2023-03-20T12:16:15;101580.53;;;8.73;100.00
64844;BME280;51310;52.198;5.422;2023-03-20T12:19:00;101578.16;;;8.67;100.00
64844;BME280;51310;52.198;5.422;2023-03-20T12:21:43;101574.94;;;8.91;100.00
64844;BME280;51310;52.198;5.422;2023-03-20T12:24:36;101572.03;;;8.88;100.00
64844;BME280;51310;52.198;5.422;2023-03-20T12:29:51;101577.25;;;8.59;100.00
64844;BME280;51310;52.198;5.422;2023-03-20T12:32:29;101574.69;;;8.67;100.00
64844;BME280;51310;52.198;5.422;2023-03-20T12:35:35;101570.94;;;8.86;100.00
64844;BME280;51310;52.198;5.422;2023-03-20T12:38:08;101572.69;;;8.64;100.00
64844;BME280;51310;52.198;5.422;2023-03-20T12:40:43;101565.00;;;8.57;100.00
64844;BME280;51310;52.198;5.422;2023-03-20T12:43:24;101567.41;;;8.48;100.00
64844;BME280;51310;52.198;5.422;2023-03-20T12:49:38;101564.75;;;8.70;100.00
64844;BME280;51310;52.198;5.422;2023-03-20T12:52:30;101561.19;;;8.53;100.00
64844;BME280;51310;52.198;5.422;2023-03-20T12:58:15;101550.91;;;8.46;100.00
64844;BME280;51310;52.198;5.422;2023-03-20T13:06:54;101550.00;;;8.31;100.00
64844;BME280;51310;52.198;5.422;2023-03-20T13:10:11;101553.31;;;8.52;100.00
64844;BME280;51310;52.198;5.422;2023-03-20T13:13:02;101554.38;;;8.39;100.00
64844;BME280;51310;52.198;5.422;2023-03-20T13:16:17;101548.56;;;8.40;100.00
64844;BME280;51310;52.198;5.422;2023-03-20T13:27:25;101531.03;;;8.74;100.00
64844;BME280;51310;52.198;5.422;2023-03-20T13:30:06;101529.59;;;8.61;
64844;BME280;51310;52.198;5.422;2023-03-20T13:38:22;101539.00;;;8.54;100.00
64844;BME280;51310;52.198;5.422;2023-03-20T13:41:01;101523.78;;;8.55;100.00
64844;BME280;51310;52.198;5.422;2023-03-20T13:43:44;101530.22;;;8.52;100.00
64844;BME280;51310;52.198;5.422;2023-03-20T13:46:21;101525.28;;;8.39;100.00
64844;BME280;51310;52.198;5.422;2023-03-20T13:48:51;101525.34;;;8.17;100.00
64844;BME280;51310;52.198;5.422;2023-03-20T13:51:37;101528.41;;;8.29;100.00
64844;BME280;51310;52.198;5.422;2023-03-20T13:54:30;101517.63;;;8.32;100.00
64844;BME280;51310;52.198;5.422;2023-03-20T13:59:53;101526.94;;;8.46;100.00
64844;BME280;51310;52.198;5.422;2023-03-20T14:05:23;101520.13;;;8.46;100.00
64844;BME280;51310;52.198;5.422;2023-03-20T14:07:56;101524.88;;;8.50;100.00
64844;BME280;51310;52.198;5.422;2023-03-20T14:12:58;101520.31;;;8.48;100.00
64844;BME280;51310;52.198;5.422;2023-03-20T14:15:30;101512.66;;;8.40;100.00
64844;BME280;51310;52.198;5.422;2023-03-20T14:17:57;101517.94;;;8.35;100.00
64844;BME280;51310;52.198;5.422;2023-03-20T14:20:35;101525.47;;;8.33;100.00
64844;BME280;51310;52.198;5.422;2023-03-20T14:23:02;101524.56;;;8.33;100.00
64844;BME280;51310;52.198;5.422;2023-03-20T14:25:40;101514.31;;;8.26;100.00
64844;BME280;51310;52.198;5.422;2023-03-20T14:30:43;101517.44;;;8.16;100.00
64844;BME280;51310;52.198;5.422;2023-03-20T14:35:45;101513.97;;;8.15;100.00
64844;BME280;51310;52.198;5.422;2023-03-20T14:38:43;101511.03;;;8.19;100.00
64844;BME280;51310;52.198;5.422;2023-03-20T14:41:57;101520.97;;;8.16;100.00
64844;BME280;51310;52.198;5.422;2023-03-20T14:44:43;101511.59;;;8.10;100.00
64844;BME280;51310;52.198;5.422;2023-03-20T14:49:52;101514.00;;;8.01;100.00
64844;BME280;51310;52.198;5.422;2023-03-20T14:57:46;101511.13;;;7.91;100.00
64844;BME280;51310;52.198;5.422;2023-03-20T15:00:27;101518.03;;;7.99;100.00
64844;BME280;51310;52.198;5.422;2023-03-20T15:03:13;101520.59;;;7.99;100.00
64844;BME280;51310;52.198;5.422;2023-03-20T15:05:40;101516.59;;;7.94;100.00